sensor_id;sensor_type;location;lat;lon;timestamp;pressure;altitude;pressure_sealevel;temperature;humidity
9059;BME280;4564;42.034;25.834;2023-05-02T00:01:23;100783.69;;;10.13;97.43
9059;BME280;4564;42.034;25.834;2023-05-02T00:03:49;100788.63;;;10.09;98.11
9059;BME280;4564;42.034;25.834;2023-05-02T00:06:16;100791.00;;;10.04;98.35
9059;BME280;4564;42.034;25.834;2023-05-02T00:08:44;100788.97;;;9.98;98.46
9059;BME280;4564;42.034;25.834;2023-05-02T00:11:11;100795.41;;;9.97;98.60
9059;BME280;4564;42.034;25.834;2023-05-02T00:13:38;100793.72;;;9.96;98.61
9059;BME280;4564;42.034;25.834;2023-05-02T00:16:05;100793.06;;;9.86;98.46
9059;BME280;4564;42.034;25.834;2023-05-02T00:18:32;100804.91;;;9.77;98.17
9059;BME280;4564;42.034;25.834;2023-05-02T00:20:58;100802.03;;;9.70;98.35
9059;BME280;4564;42.034;25.834;2023-05-02T00:23:25;100803.22;;;9.76;98.79
9059;BME280;4564;42.034;25.834;2023-05-02T00:25:53;100804.06;;;9.76;98.89
9059;BME280;4564;42.034;25.834;2023-05-02T00:28:19;100804.22;;;9.75;98.43
9059;BME280;4564;42.034;25.834;2023-05-02T00:30:46;100818.63;;;9.75;98.38
9059;BME280;4564;42.034;25.834;2023-05-02T00:33:13;100819.47;;;9.76;98.30
9059;BME280;4564;42.034;25.834;2023-05-02T00:35:40;100817.09;;;9.81;97.56
9059;BME280;4564;42.034;25.834;2023-05-02T00:38:06;100816.94;;;9.82;97.28
9059;BME280;4564;42.034;25.834;2023-05-02T00:40:41;100814.91;;;9.84;96.32
9059;BME280;4564;42.034;25.834;2023-05-02T00:43:09;100818.81;;;9.82;96.62
9059;BME280;4564;42.034;25.834;2023-05-02T00:45:36;100819.81;;;9.81;96.09
9059;BME280;4564;42.034;25.834;2023-05-02T00:48:05;100820.47;;;9.83;95.91
9059;BME280;4564;42.034;25.834;2023-05-02T00:50:31;100821.19;;;9.77;95.90
9059;BME280;4564;42.034;25.834;2023-05-02T00:52:59;100819.47;;;9.76;95.74
9059;BME280;4564;42.034;25.834;2023-05-02T00:55:26;100813.03;;;9.60;95.07
9059;BME280;4564;42.034;25.834;2023-05-02T00:57:52;100823.69;;;9.46;95.29
9059;BME280;4564;42.034;25.834;2023-05-02T01:00:21;100815.03;;;9.42;95.51
9059;BME280;4564;42.034;25.834;2023-05-02T01:02:50;100815.56;;;9.38;96.14
9059;BME280;4564;42.034;25.834;2023-05-02T01:05:20;100817.25;;;9.39;95.64
9059;BME280;4564;42.034;25.834;2023-05-02T01:07:53;100814.50;;;9.31;95.92
9059;BME280;4564;42.034;25.834;2023-05-02T01:10:24;100810.78;;;9.32;96.56
9059;BME280;4564;42.034;25.834;2023-05-02T01:12:57;100817.38;;;9.29;96.63
9059;BME280;4564;42.034;25.834;2023-05-02T01:15:26;100821.94;;;9.28;96.59
9059;BME280;4564;42.034;25.834;2023-05-02T01:17:53;100810.94;;;9.22;96.68
9059;BME280;4564;42.034;25.834;2023-05-02T01:20:22;100806.50;;;9.13;96.60
9059;BME280;4564;42.034;25.834;2023-05-02T01:22:51;100812.28;;;9.10;97.41
9059;BME280;4564;42.034;25.834;2023-05-02T01:25:22;100810.91;;;9.06;97.25
9059;BME280;4564;42.034;25.834;2023-05-02T01:27:55;100811.22;;;9.03;97.56
9059;BME280;4564;42.034;25.834;2023-05-02T01:30:25;100808.50;;;9.03;97.65
9059;BME280;4564;42.034;25.834;2023-05-02T01:32:53;100804.81;;;9.04;98.13
9059;BME280;4564;42.034;25.834;2023-05-02T01:35:20;100805.31;;;8.99;97.54
9059;BME280;4564;42.034;25.834;2023-05-02T01:37:48;100809.50;;;8.94;97.44
9059;BME280;4564;42.034;25.834;2023-05-02T01:40:16;100810.22;;;8.96;97.93
9059;BME280;4564;42.034;25.834;2023-05-02T01:42:43;100808.31;;;8.96;97.11
9059;BME280;4564;42.034;25.834;2023-05-02T01:45:11;100802.91;;;8.96;97.06
9059;BME280;4564;42.034;25.834;2023-05-02T01:47:40;100808.16;;;8.98;97.32
9059;BME280;4564;42.034;25.834;2023-05-02T01:50:10;100798.84;;;8.92;96.44
9059;BME280;4564;42.034;25.834;2023-05-02T01:52:37;100805.75;;;8.87;97.31
9059;BME280;4564;42.034;25.834;2023-05-02T01:55:05;100807.09;;;8.82;97.42
9059;BME280;4564;42.034;25.834;2023-05-02T01:57:34;100799.97;;;8.73;97.25
9059;BME280;4564;42.034;25.834;2023-05-02T02:00:02;100801.13;;;8.71;97.30
9059;BME280;4564;42.034;25.834;2023-05-02T02:02:30;100805.34;;;8.65;96.96
9059;BME280;4564;42.034;25.834;2023-05-02T02:05:00;100810.91;;;8.64;96.44
9059;BME280;4564;42.034;25.834;2023-05-02T02:07:28;100809.38;;;8.61;96.42
9059;BME280;4564;42.034;25.834;2023-05-02T02:09:54;100817.34;;;8.37;96.00
9059;BME280;4564;42.034;25.834;2023-05-02T02:12:22;100816.97;;;8.32;97.34
9059;BME280;4564;42.034;25.834;2023-05-02T02:14:52;100814.28;;;8.32;96.88
9059;BME280;4564;42.034;25.834;2023-05-02T02:17:23;100821.00;;;8.28;96.99
9059;BME280;4564;42.034;25.834;2023-05-02T02:19:51;100822.31;;;8.24;96.89
9059;BME280;4564;42.034;25.834;2023-05-02T02:22:20;100821.63;;;8.22;96.90
9059;BME280;4564;42.034;25.834;2023-05-02T02:24:47;100823.97;;;8.17;97.27
9059;BME280;4564;42.034;25.834;2023-05-02T02:27:13;100817.88;;;8.15;97.04
9059;BME280;4564;42.034;25.834;2023-05-02T02:29:40;100819.75;;;8.14;96.57
9059;BME280;4564;42.034;25.834;2023-05-02T02:32:07;100821.22;;;8.09;96.02
9059;BME280;4564;42.034;25.834;2023-05-02T02:34:33;100828.94;;;8.04;96.52
9059;BME280;4564;42.034;25.834;2023-05-02T02:37:02;100822.84;;;8.01;96.95
9059;BME280;4564;42.034;25.834;2023-05-02T02:39:41;100824.41;;;8.04;97.47
9059;BME280;4564;42.034;25.834;2023-05-02T02:42:11;100822.84;;;8.01;97.77
9059;BME280;4564;42.034;25.834;2023-05-02T02:44:42;100827.53;;;7.99;97.65
9059;BME280;4564;42.034;25.834;2023-05-02T02:47:13;100826.50;;;7.92;97.70
9059;BME280;4564;42.034;25.834;2023-05-02T02:49:46;100829.75;;;7.78;98.19
9059;BME280;4564;42.034;25.834;2023-05-02T02:52:16;100830.06;;;7.75;99.19
9059;BME280;4564;42.034;25.834;2023-05-02T02:54:50;100835.09;;;7.70;99.30
9059;BME280;4564;42.034;25.834;2023-05-02T02:57:18;100826.22;;;7.60;100.00
9059;BME280;4564;42.034;25.834;2023-05-02T02:59:50;100832.25;;;7.54;100.00
9059;BME280;4564;42.034;25.834;2023-05-02T03:02:22;100823.75;;;7.49;100.00
9059;BME280;4564;42.034;25.834;2023-05-02T03:04:52;100831.16;;;7.47;100.00
9059;BME280;4564;42.034;25.834;2023-05-02T03:07:20;100837.16;;;7.41;100.00
9059;BME280;4564;42.034;25.834;2023-05-02T03:09:46;100836.88;;;7.44;100.00
9059;BME280;4564;42.034;25.834;2023-05-02T03:12:14;100838.56;;;7.45;100.00
9059;BME280;4564;42.034;25.834;2023-05-02T03:14:41;100836.91;;;7.34;99.56
9059;BME280;4564;42.034;25.834;2023-05-02T03:17:07;100841.88;;;7.39;100.00
9059;BME280;4564;42.034;25.834;2023-05-02T03:19:34;100843.97;;;7.45;99.88
9059;BME280;4564;42.034;25.834;2023-05-02T03:22:01;100846.25;;;7.40;98.99
9059;BME280;4564;42.034;25.834;2023-05-02T03:24:28;100850.00;;;7.39;98.65
9059;BME280;4564;42.034;25.834;2023-05-02T03:26:54;100859.00;;;7.47;98.89
9059;BME280;4564;42.034;25.834;2023-05-02T03:29:22;100855.78;;;7.44;98.83
9059;BME280;4564;42.034;25.834;2023-05-02T03:31:49;100863.03;;;7.43;96.72
9059;BME280;4564;42.034;25.834;2023-05-02T03:34:16;100865.25;;;7.48;96.90
9059;BME280;4564;42.034;25.834;2023-05-02T03:36:43;100862.41;;;7.49;97.81
9059;BME280;4564;42.034;25.834;2023-05-02T03:39:10;100869.44;;;7.60;97.02
9059;BME280;4564;42.034;25.834;2023-05-02T03:41:37;100867.13;;;7.65;96.51
9059;BME280;4564;42.034;25.834;2023-05-02T03:44:04;100870.22;;;7.70;96.22
9059;BME280;4564;42.034;25.834;2023-05-02T03:46:32;100872.59;;;7.73;96.28
9059;BME280;4564;42.034;25.834;2023-05-02T03:48:58;100876.38;;;7.80;95.58
9059;BME280;4564;42.034;25.834;2023-05-02T03:51:25;100873.91;;;7.87;95.73
9059;BME280;4564;42.034;25.834;2023-05-02T03:53:52;100884.47;;;7.98;95.47
9059;BME280;4564;42.034;25.834;2023-05-02T03:56:19;100886.16;;;7.99;94.79
9059;BME280;4564;42.034;25.834;2023-05-02T03:58:45;100885.16;;;8.00;94.98
9059;BME280;4564;42.034;25.834;2023-05-02T04:01:12;100894.59;;;7.78;94.26
9059;BME280;4564;42.034;25.834;2023-05-02T04:03:40;100897.84;;;7.82;96.40
9059;BME280;4564;42.034;25.834;2023-05-02T04:06:07;100894.06;;;7.75;95.73
9059;BME280;4564;42.034;25.834;2023-05-02T04:08:33;100897.06;;;7.89;96.56
9059;BME280;4564;42.034;25.834;2023-05-02T04:11:01;100902.84;;;8.12;95.81
9059;BME280;4564;42.034;25.834;2023-05-02T04:13:27;100908.91;;;8.32;94.89
9059;BME280;4564;42.034;25.834;2023-05-02T04:15:54;100897.56;;;8.28;94.39
9059;BME280;4564;42.034;25.834;2023-05-02T04:18:21;100898.53;;;8.45;94.27
9059;BME280;4564;42.034;25.834;2023-05-02T04:20:49;100905.44;;;8.65;93.37
9059;BME280;4564;42.034;25.834;2023-05-02T04:23:16;100908.88;;;8.75;91.87
9059;BME280;4564;42.034;25.834;2023-05-02T04:25:49;100910.28;;;8.79;90.75
9059;BME280;4564;42.034;25.834;2023-05-02T04:28:15;100917.06;;;8.83;90.83
9059;BME280;4564;42.034;25.834;2023-05-02T04:30:42;100909.56;;;8.77;91.01
9059;BME280;4564;42.034;25.834;2023-05-02T04:33:09;100908.94;;;8.83;91.59
9059;BME280;4564;42.034;25.834;2023-05-02T04:35:38;100908.16;;;8.99;91.18
9059;BME280;4564;42.034;25.834;2023-05-02T04:38:06;100905.31;;;9.09;90.82
9059;BME280;4564;42.034;25.834;2023-05-02T04:40:33;100910.13;;;9.23;91.33
9059;BME280;4564;42.034;25.834;2023-05-02T04:43:00;100900.91;;;9.50;90.64
9059;BME280;4564;42.034;25.834;2023-05-02T04:45:27;100910.25;;;9.63;89.40
9059;BME280;4564;42.034;25.834;2023-05-02T04:47:53;100916.72;;;9.95;88.74
9059;BME280;4564;42.034;25.834;2023-05-02T04:50:20;100917.47;;;10.29;87.79
9059;BME280;4564;42.034;25.834;2023-05-02T04:52:47;100921.00;;;10.38;86.39
9059;BME280;4564;42.034;25.834;2023-05-02T04:55:15;100915.25;;;10.33;87.11
9059;BME280;4564;42.034;25.834;2023-05-02T04:57:41;100915.75;;;10.44;87.12
9059;BME280;4564;42.034;25.834;2023-05-02T05:00:08;100914.00;;;10.84;86.84
9059;BME280;4564;42.034;25.834;2023-05-02T05:02:35;100912.50;;;11.12;85.78
9059;BME280;4564;42.034;25.834;2023-05-02T05:05:03;100911.50;;;11.13;84.96
9059;BME280;4564;42.034;25.834;2023-05-02T05:07:29;100919.81;;;11.51;85.43
9059;BME280;4564;42.034;25.834;2023-05-02T05:09:56;100918.91;;;11.97;82.60
9059;BME280;4564;42.034;25.834;2023-05-02T05:12:24;100919.31;;;12.09;82.06
9059;BME280;4564;42.034;25.834;2023-05-02T05:14:51;100916.50;;;12.40;81.51
9059;BME280;4564;42.034;25.834;2023-05-02T05:17:17;100920.78;;;12.86;80.05
9059;BME280;4564;42.034;25.834;2023-05-02T05:19:44;100925.47;;;14.02;78.01
9059;BME280;4564;42.034;25.834;2023-05-02T05:22:10;100924.84;;;15.86;71.17
9059;BME280;4564;42.034;25.834;2023-05-02T05:24:37;100929.59;;;18.69;63.62
9059;BME280;4564;42.034;25.834;2023-05-02T05:27:03;100936.47;;;21.12;53.85
9059;BME280;4564;42.034;25.834;2023-05-02T05:29:32;100937.69;;;22.65;48.11
9059;BME280;4564;42.034;25.834;2023-05-02T05:31:58;100942.59;;;23.90;44.67
9059;BME280;4564;42.034;25.834;2023-05-02T05:34:25;100938.94;;;25.38;39.61
9059;BME280;4564;42.034;25.834;2023-05-02T05:36:51;100941.59;;;26.27;36.69
9059;BME280;4564;42.034;25.834;2023-05-02T05:39:18;100940.78;;;27.18;34.72
9059;BME280;4564;42.034;25.834;2023-05-02T05:41:44;100955.00;;;26.71;34.04
9059;BME280;4564;42.034;25.834;2023-05-02T05:44:11;100945.19;;;26.23;35.27
9059;BME280;4564;42.034;25.834;2023-05-02T05:46:39;100943.56;;;26.78;35.26
9059;BME280;4564;42.034;25.834;2023-05-02T05:49:05;100952.72;;;27.39;33.23
9059;BME280;4564;42.034;25.834;2023-05-02T05:51:32;100950.75;;;27.44;33.28
9059;BME280;4564;42.034;25.834;2023-05-02T05:53:59;100953.75;;;28.32;32.59
9059;BME280;4564;42.034;25.834;2023-05-02T05:56:25;100962.41;;;27.72;32.71
9059;BME280;4564;42.034;25.834;2023-05-02T05:58:52;100960.09;;;27.94;34.18
9059;BME280;4564;42.034;25.834;2023-05-02T06:01:19;100958.28;;;27.39;34.42
9059;BME280;4564;42.034;25.834;2023-05-02T06:03:47;100956.38;;;27.24;34.34
9059;BME280;4564;42.034;25.834;2023-05-02T06:06:13;100955.78;;;27.47;34.28
9059;BME280;4564;42.034;25.834;2023-05-02T06:08:40;100962.00;;;27.98;33.85
9059;BME280;4564;42.034;25.834;2023-05-02T06:11:10;100957.34;;;29.11;32.54
9059;BME280;4564;42.034;25.834;2023-05-02T06:13:36;100951.41;;;29.17;31.25
9059;BME280;4564;42.034;25.834;2023-05-02T06:16:03;100941.06;;;28.89;32.71
9059;BME280;4564;42.034;25.834;2023-05-02T06:18:30;100952.91;;;29.05;32.29
9059;BME280;4564;42.034;25.834;2023-05-02T06:21:01;100957.91;;;29.66;31.28
9059;BME280;4564;42.034;25.834;2023-05-02T06:23:28;100946.44;;;29.86;31.25
9059;BME280;4564;42.034;25.834;2023-05-02T06:25:57;100952.75;;;30.58;28.74
9059;BME280;4564;42.034;25.834;2023-05-02T06:28:24;100948.19;;;30.24;29.67
9059;BME280;4564;42.034;25.834;2023-05-02T06:30:55;100953.28;;;30.60;29.78
9059;BME280;4564;42.034;25.834;2023-05-02T06:33:22;100950.16;;;30.05;30.13
9059;BME280;4564;42.034;25.834;2023-05-02T06:35:49;100951.75;;;29.87;29.54
9059;BME280;4564;42.034;25.834;2023-05-02T06:38:18;100944.00;;;30.03;29.69
9059;BME280;4564;42.034;25.834;2023-05-02T06:40:44;100945.78;;;30.36;30.13
9059;BME280;4564;42.034;25.834;2023-05-02T06:43:11;100936.69;;;30.96;28.32
9059;BME280;4564;42.034;25.834;2023-05-02T06:45:38;100949.97;;;30.90;28.84
9059;BME280;4564;42.034;25.834;2023-05-02T06:48:05;100946.03;;;30.91;29.49
9059;BME280;4564;42.034;25.834;2023-05-02T06:50:31;100950.09;;;31.31;27.63
9059;BME280;4564;42.034;25.834;2023-05-02T06:52:58;100955.84;;;31.94;26.92
9059;BME280;4564;42.034;25.834;2023-05-02T06:55:26;100958.41;;;32.32;25.78
9059;BME280;4564;42.034;25.834;2023-05-02T06:57:53;100961.97;;;31.96;26.91
9059;BME280;4564;42.034;25.834;2023-05-02T07:00:20;100963.75;;;32.56;24.29
9059;BME280;4564;42.034;25.834;2023-05-02T07:02:47;100961.88;;;32.51;23.29
9059;BME280;4564;42.034;25.834;2023-05-02T07:05:14;100966.72;;;32.37;22.28
9059;BME280;4564;42.034;25.834;2023-05-02T07:07:41;100961.13;;;32.59;21.72
9059;BME280;4564;42.034;25.834;2023-05-02T07:10:08;100959.53;;;32.80;22.10
9059;BME280;4564;42.034;25.834;2023-05-02T07:12:36;100961.94;;;33.18;20.72
9059;BME280;4564;42.034;25.834;2023-05-02T07:15:03;100962.47;;;32.98;21.84
9059;BME280;4564;42.034;25.834;2023-05-02T07:17:30;100960.56;;;33.15;20.39
9059;BME280;4564;42.034;25.834;2023-05-02T07:19:57;100957.31;;;32.55;20.91
9059;BME280;4564;42.034;25.834;2023-05-02T07:22:24;100958.84;;;31.43;21.59
9059;BME280;4564;42.034;25.834;2023-05-02T07:24:56;100961.59;;;31.62;20.98
9059;BME280;4564;42.034;25.834;2023-05-02T07:27:22;100957.25;;;31.23;21.89
9059;BME280;4564;42.034;25.834;2023-05-02T07:29:51;100955.06;;;31.20;21.31
9059;BME280;4564;42.034;25.834;2023-05-02T07:32:18;100971.53;;;31.41;20.80
9059;BME280;4564;42.034;25.834;2023-05-02T07:34:45;100968.81;;;31.49;20.94
9059;BME280;4564;42.034;25.834;2023-05-02T07:37:12;100960.94;;;32.56;20.65
9059;BME280;4564;42.034;25.834;2023-05-02T07:39:39;100961.38;;;32.13;20.09
9059;BME280;4564;42.034;25.834;2023-05-02T07:42:05;100956.53;;;31.32;21.78
9059;BME280;4564;42.034;25.834;2023-05-02T07:44:32;100968.63;;;32.28;20.17
9059;BME280;4564;42.034;25.834;2023-05-02T07:47:00;100959.91;;;32.16;20.47
9059;BME280;4564;42.034;25.834;2023-05-02T07:49:27;100962.72;;;31.75;20.41
9059;BME280;4564;42.034;25.834;2023-05-02T07:51:53;100958.00;;;31.43;20.69
9059;BME280;4564;42.034;25.834;2023-05-02T07:54:20;100955.97;;;32.17;20.17
9059;BME280;4564;42.034;25.834;2023-05-02T07:56:47;100952.19;;;32.07;19.95
9059;BME280;4564;42.034;25.834;2023-05-02T07:59:14;100947.53;;;30.70;20.90
9059;BME280;4564;42.034;25.834;2023-05-02T08:01:40;100946.63;;;29.71;21.45
9059;BME280;4564;42.034;25.834;2023-05-02T08:04:08;100945.03;;;28.44;22.45
9059;BME280;4564;42.034;25.834;2023-05-02T08:06:35;100942.97;;;27.41;24.30
9059;BME280;4564;42.034;25.834;2023-05-02T08:09:02;100936.56;;;26.29;24.24
9059;BME280;4564;42.034;25.834;2023-05-02T08:11:29;100935.88;;;25.87;25.05
9059;BME280;4564;42.034;25.834;2023-05-02T08:13:55;100936.72;;;24.93;25.03
9059;BME280;4564;42.034;25.834;2023-05-02T08:16:22;100933.44;;;24.70;25.59
9059;BME280;4564;42.034;25.834;2023-05-02T08:18:49;100932.78;;;24.57;26.13
9059;BME280;4564;42.034;25.834;2023-05-02T08:21:17;100929.88;;;24.42;26.81
9059;BME280;4564;42.034;25.834;2023-05-02T08:23:43;100921.91;;;24.83;28.37
9059;BME280;4564;42.034;25.834;2023-05-02T08:26:10;100935.72;;;25.10;26.50
9059;BME280;4564;42.034;25.834;2023-05-02T08:28:37;100926.09;;;24.53;28.38
9059;BME280;4564;42.034;25.834;2023-05-02T08:31:03;100928.38;;;24.08;27.52
9059;BME280;4564;42.034;25.834;2023-05-02T08:33:30;100923.25;;;23.95;27.41
9059;BME280;4564;42.034;25.834;2023-05-02T08:35:56;100917.44;;;24.18;28.13
9059;BME280;4564;42.034;25.834;2023-05-02T08:38:26;100922.81;;;24.08;27.73
9059;BME280;4564;42.034;25.834;2023-05-02T08:40:52;100915.63;;;24.07;28.49
9059;BME280;4564;42.034;25.834;2023-05-02T08:43:19;100914.22;;;24.31;28.20
9059;BME280;4564;42.034;25.834;2023-05-02T08:45:45;100921.34;;;24.22;27.86
9059;BME280;4564;42.034;25.834;2023-05-02T08:48:14;100920.41;;;23.90;28.32
9059;BME280;4564;42.034;25.834;2023-05-02T08:50:42;100926.16;;;23.61;28.49
9059;BME280;4564;42.034;25.834;2023-05-02T08:53:12;100916.69;;;23.57;29.11
9059;BME280;4564;42.034;25.834;2023-05-02T08:55:41;100920.69;;;23.66;28.73
9059;BME280;4564;42.034;25.834;2023-05-02T08:58:08;100918.44;;;23.25;29.40
9059;BME280;4564;42.034;25.834;2023-05-02T09:00:36;100927.31;;;23.27;29.90
9059;BME280;4564;42.034;25.834;2023-05-02T09:03:05;100913.09;;;23.01;29.18
9059;BME280;4564;42.034;25.834;2023-05-02T09:05:32;100911.75;;;23.21;29.16
9059;BME280;4564;42.034;25.834;2023-05-02T09:08:03;100909.44;;;22.79;27.97
9059;BME280;4564;42.034;25.834;2023-05-02T09:10:30;100907.38;;;22.25;27.90
9059;BME280;4564;42.034;25.834;2023-05-02T09:15:43;100891.97;;;22.29;30.05
9059;BME280;4564;42.034;25.834;2023-05-02T09:18:22;100887.91;;;22.19;29.17
9059;BME280;4564;42.034;25.834;2023-05-02T09:20:49;100890.78;;;22.25;28.92
9059;BME280;4564;42.034;25.834;2023-05-02T09:23:16;100888.53;;;22.22;28.98
9059;BME280;4564;42.034;25.834;2023-05-02T09:25:42;100884.66;;;22.06;29.50
9059;BME280;4564;42.034;25.834;2023-05-02T09:28:09;100886.75;;;22.15;29.91
9059;BME280;4564;42.034;25.834;2023-05-02T09:30:36;100879.16;;;22.23;29.44
9059;BME280;4564;42.034;25.834;2023-05-02T09:33:04;100880.28;;;22.10;29.57
9059;BME280;4564;42.034;25.834;2023-05-02T09:35:30;100872.31;;;22.13;29.11
9059;BME280;4564;42.034;25.834;2023-05-02T09:37:57;100861.63;;;22.17;28.32
9059;BME280;4564;42.034;25.834;2023-05-02T09:40:24;100864.16;;;22.18;28.73
9059;BME280;4564;42.034;25.834;2023-05-02T09:42:52;100869.00;;;22.28;29.69
9059;BME280;4564;42.034;25.834;2023-05-02T09:45:19;100860.88;;;21.93;28.97
9059;BME280;4564;42.034;25.834;2023-05-02T09:47:46;100865.72;;;21.86;29.95
9059;BME280;4564;42.034;25.834;2023-05-02T09:53:03;100855.00;;;21.90;30.81
9059;BME280;4564;42.034;25.834;2023-05-02T09:55:30;100867.03;;;21.95;28.57
9059;BME280;4564;42.034;25.834;2023-05-02T09:57:56;100859.09;;;21.87;28.69
9059;BME280;4564;42.034;25.834;2023-05-02T10:00:36;100861.38;;;21.90;28.27
9059;BME280;4564;42.034;25.834;2023-05-02T10:03:03;100854.69;;;21.86;29.98
9059;BME280;4564;42.034;25.834;2023-05-02T10:05:31;100857.38;;;21.98;31.85
9059;BME280;4564;42.034;25.834;2023-05-02T10:07:59;100849.53;;;22.06;31.83
9059;BME280;4564;42.034;25.834;2023-05-02T10:10:27;100848.78;;;22.11;31.31
9059;BME280;4564;42.034;25.834;2023-05-02T10:12:54;100840.66;;;22.04;30.96
9059;BME280;4564;42.034;25.834;2023-05-02T10:15:21;100852.25;;;22.18;29.84
9059;BME280;4564;42.034;25.834;2023-05-02T10:17:48;100840.75;;;22.09;28.76
9059;BME280;4564;42.034;25.834;2023-05-02T10:20:18;100849.22;;;22.19;30.67
9059;BME280;4564;42.034;25.834;2023-05-02T10:22:48;100842.34;;;22.22;30.94
9059;BME280;4564;42.034;25.834;2023-05-02T10:25:15;100846.22;;;22.38;31.34
9059;BME280;4564;42.034;25.834;2023-05-02T10:27:43;100831.63;;;22.26;30.70
9059;BME280;4564;42.034;25.834;2023-05-02T10:30:11;100837.16;;;22.26;30.24
9059;BME280;4564;42.034;25.834;2023-05-02T10:32:38;100834.63;;;22.07;30.24
9059;BME280;4564;42.034;25.834;2023-05-02T10:35:05;100830.94;;;22.02;29.89
9059;BME280;4564;42.034;25.834;2023-05-02T10:37:33;100823.59;;;22.07;31.93
9059;BME280;4564;42.034;25.834;2023-05-02T10:40:00;100824.25;;;22.31;32.42
9059;BME280;4564;42.034;25.834;2023-05-02T10:42:27;100828.25;;;22.40;30.77
9059;BME280;4564;42.034;25.834;2023-05-02T10:44:56;100823.41;;;22.31;32.45
9059;BME280;4564;42.034;25.834;2023-05-02T10:47:23;100817.03;;;22.30;31.52
9059;BME280;4564;42.034;25.834;2023-05-02T10:49:51;100824.84;;;22.16;31.09
9059;BME280;4564;42.034;25.834;2023-05-02T10:52:25;100816.53;;;22.00;30.88
9059;BME280;4564;42.034;25.834;2023-05-02T10:54:56;100816.19;;;21.96;32.17
9059;BME280;4564;42.034;25.834;2023-05-02T11:00:22;100817.38;;;22.34;32.57
9059;BME280;4564;42.034;25.834;2023-05-02T11:02:48;100820.72;;;22.36;32.70
9059;BME280;4564;42.034;25.834;2023-05-02T11:05:15;100820.91;;;22.29;31.13
9059;BME280;4564;42.034;25.834;2023-05-02T11:07:42;100817.03;;;22.13;31.92
9059;BME280;4564;42.034;25.834;2023-05-02T11:10:24;100820.53;;;22.09;31.60
9059;BME280;4564;42.034;25.834;2023-05-02T11:12:52;100808.66;;;22.08;32.32
9059;BME280;4564;42.034;25.834;2023-05-02T11:18:03;100812.91;;;21.99;30.77
9059;BME280;4564;42.034;25.834;2023-05-02T11:20:31;100818.78;;;22.03;30.04
9059;BME280;4564;42.034;25.834;2023-05-02T11:22:59;100803.63;;;22.05;30.22
9059;BME280;4564;42.034;25.834;2023-05-02T11:25:47;100807.72;;;22.19;29.48
9059;BME280;4564;42.034;25.834;2023-05-02T11:30:59;100793.75;;;22.26;30.98
9059;BME280;4564;42.034;25.834;2023-05-02T11:33:28;100792.06;;;22.42;30.61
9059;BME280;4564;42.034;25.834;2023-05-02T11:35:54;100805.41;;;22.45;31.37
9059;BME280;4564;42.034;25.834;2023-05-02T11:38:22;100788.53;;;22.46;30.88
9059;BME280;4564;42.034;25.834;2023-05-02T11:40:52;100790.06;;;22.37;30.14
9059;BME280;4564;42.034;25.834;2023-05-02T11:43:19;100791.66;;;22.33;31.81
9059;BME280;4564;42.034;25.834;2023-05-02T11:45:46;100785.34;;;22.38;31.53
9059;BME280;4564;42.034;25.834;2023-05-02T11:48:14;100793.88;;;22.53;29.42
9059;BME280;4564;42.034;25.834;2023-05-02T11:50:43;100787.19;;;22.49;30.21
9059;BME280;4564;42.034;25.834;2023-05-02T11:53:10;100792.28;;;22.57;28.94
9059;BME280;4564;42.034;25.834;2023-05-02T11:55:42;100787.03;;;22.39;28.76
9059;BME280;4564;42.034;25.834;2023-05-02T11:58:11;100782.19;;;22.29;29.61
9059;BME280;4564;42.034;25.834;2023-05-02T12:00:38;100778.47;;;22.40;29.37
9059;BME280;4564;42.034;25.834;2023-05-02T12:03:04;100784.91;;;22.46;31.38
9059;BME280;4564;42.034;25.834;2023-05-02T12:05:31;100778.44;;;22.57;30.87
9059;BME280;4564;42.034;25.834;2023-05-02T12:07:59;100771.25;;;22.56;30.17
9059;BME280;4564;42.034;25.834;2023-05-02T12:10:34;100767.38;;;22.57;30.14
9059;BME280;4564;42.034;25.834;2023-05-02T12:13:02;100765.66;;;22.51;31.59
9059;BME280;4564;42.034;25.834;2023-05-02T12:15:29;100758.97;;;22.69;31.22
9059;BME280;4564;42.034;25.834;2023-05-02T12:17:56;100765.88;;;22.66;29.73
9059;BME280;4564;42.034;25.834;2023-05-02T12:20:22;100753.38;;;22.64;29.61
9059;BME280;4564;42.034;25.834;2023-05-02T12:22:49;100757.25;;;22.46;28.69
9059;BME280;4564;42.034;25.834;2023-05-02T12:25:17;100752.84;;;22.28;28.80
9059;BME280;4564;42.034;25.834;2023-05-02T12:27:57;100748.34;;;22.22;29.59
9059;BME280;4564;42.034;25.834;2023-05-02T12:30:26;100748.41;;;22.10;30.38
9059;BME280;4564;42.034;25.834;2023-05-02T12:32:56;100740.09;;;21.94;29.18
9059;BME280;4564;42.034;25.834;2023-05-02T12:35:23;100741.59;;;21.85;29.87
9059;BME280;4564;42.034;25.834;2023-05-02T12:37:51;100738.00;;;21.84;30.34
9059;BME280;4564;42.034;25.834;2023-05-02T12:40:19;100733.06;;;21.86;30.52
9059;BME280;4564;42.034;25.834;2023-05-02T12:42:57;100735.94;;;21.91;30.33
9059;BME280;4564;42.034;25.834;2023-05-02T12:45:23;100728.41;;;22.03;30.54
9059;BME280;4564;42.034;25.834;2023-05-02T12:47:53;100722.00;;;22.19;30.77
9059;BME280;4564;42.034;25.834;2023-05-02T12:50:19;100728.44;;;22.42;30.64
9059;BME280;4564;42.034;25.834;2023-05-02T12:52:46;100714.69;;;22.69;30.78
9059;BME280;4564;42.034;25.834;2023-05-02T12:55:16;100718.56;;;23.11;31.36
9059;BME280;4564;42.034;25.834;2023-05-02T12:57:44;100704.72;;;23.38;30.50
9059;BME280;4564;42.034;25.834;2023-05-02T13:00:11;100704.16;;;23.58;29.00
9059;BME280;4564;42.034;25.834;2023-05-02T13:02:38;100704.50;;;23.66;29.67
9059;BME280;4564;42.034;25.834;2023-05-02T13:05:12;100707.47;;;23.92;28.51
9059;BME280;4564;42.034;25.834;2023-05-02T13:07:39;100700.78;;;23.88;29.52
9059;BME280;4564;42.034;25.834;2023-05-02T13:10:06;100698.81;;;23.83;28.31
9059;BME280;4564;42.034;25.834;2023-05-02T13:12:33;100695.22;;;23.82;29.01
9059;BME280;4564;42.034;25.834;2023-05-02T13:15:03;100687.97;;;23.81;29.40
9059;BME280;4564;42.034;25.834;2023-05-02T13:17:30;100688.28;;;23.80;28.72
9059;BME280;4564;42.034;25.834;2023-05-02T13:19:57;100693.81;;;23.80;28.19
9059;BME280;4564;42.034;25.834;2023-05-02T13:22:24;100687.16;;;23.81;27.94